sensor_id;sensor_type;location;lat;lon;timestamp;P1;durP1;ratioP1;P2;durP2;ratioP2
38089;SDS011;23904;52.322;10.232;2023-04-25T00:02:02;15.35;;;5.30;;
38089;SDS011;23904;52.322;10.232;2023-04-25T00:04:28;18.02;;;5.43;;
38089;SDS011;23904;52.322;10.232;2023-04-25T00:06:54;11.18;;;5.47;;
38089;SDS011;23904;52.322;10.232;2023-04-25T00:09:20;14.45;;;5.45;;
38089;SDS011;23904;52.322;10.232;2023-04-25T00:11:47;16.38;;;5.78;;
38089;SDS011;23904;52.322;10.232;2023-04-25T00:14:13;12.75;;;5.38;;
38089;SDS011;23904;52.322;10.232;2023-04-25T00:16:39;15.98;;;5.88;;
38089;SDS011;23904;52.322;10.232;2023-04-25T00:19:06;15.30;;;5.75;;
38089;SDS011;23904;52.322;10.232;2023-04-25T00:21:32;17.52;;;5.93;;
38089;SDS011;23904;52.322;10.232;2023-04-25T00:23:58;14.98;;;6.72;;
38089;SDS011;23904;52.322;10.232;2023-04-25T00:26:24;14.25;;;5.78;;
38089;SDS011;23904;52.322;10.232;2023-04-25T00:28:52;21.38;;;5.82;;
38089;SDS011;23904;52.322;10.232;2023-04-25T00:31:17;15.02;;;6.68;;
38089;SDS011;23904;52.322;10.232;2023-04-25T00:33:43;16.90;;;5.93;;
38089;SDS011;23904;52.322;10.232;2023-04-25T00:36:08;18.55;;;5.78;;
38089;SDS011;23904;52.322;10.232;2023-04-25T00:38:34;17.67;;;7.40;;
38089;SDS011;23904;52.322;10.232;2023-04-25T00:41:00;15.20;;;5.50;;
38089;SDS011;23904;52.322;10.232;2023-04-25T00:43:26;20.40;;;6.15;;
38089;SDS011;23904;52.322;10.232;2023-04-25T00:45:52;15.55;;;5.50;;
38089;SDS011;23904;52.322;10.232;2023-04-25T00:48:19;17.30;;;5.70;;
38089;SDS011;23904;52.322;10.232;2023-04-25T00:50:51;17.27;;;6.13;;
38089;SDS011;23904;52.322;10.232;2023-04-25T00:53:21;16.67;;;6.65;;
38089;SDS011;23904;52.322;10.232;2023-04-25T00:55:49;13.93;;;6.65;;
38089;SDS011;23904;52.322;10.232;2023-04-25T00:58:16;18.15;;;6.20;;
38089;SDS011;23904;52.322;10.232;2023-04-25T01:00:43;16.05;;;5.45;;
38089;SDS011;23904;52.322;10.232;2023-04-25T01:03:14;20.98;;;7.20;;
38089;SDS011;23904;52.322;10.232;2023-04-25T01:05:41;14.07;;;5.82;;
38089;SDS011;23904;52.322;10.232;2023-04-25T01:08:07;21.30;;;5.35;;
38089;SDS011;23904;52.322;10.232;2023-04-25T01:10:33;18.90;;;5.88;;
38089;SDS011;23904;52.322;10.232;2023-04-25T01:12:59;15.20;;;5.78;;
38089;SDS011;23904;52.322;10.232;2023-04-25T01:15:24;23.60;;;6.30;;
38089;SDS011;23904;52.322;10.232;2023-04-25T01:17:50;15.30;;;6.22;;
38089;SDS011;23904;52.322;10.232;2023-04-25T01:20:16;20.33;;;6.45;;
38089;SDS011;23904;52.322;10.232;2023-04-25T01:22:42;18.77;;;6.10;;
38089;SDS011;23904;52.322;10.232;2023-04-25T01:25:08;15.27;;;5.85;;
38089;SDS011;23904;52.322;10.232;2023-04-25T01:27:35;22.85;;;7.90;;
38089;SDS011;23904;52.322;10.232;2023-04-25T01:30:01;19.67;;;6.38;;
38089;SDS011;23904;52.322;10.232;2023-04-25T01:32:28;15.20;;;5.70;;
38089;SDS011;23904;52.322;10.232;2023-04-25T01:35:02;17.55;;;5.88;;
38089;SDS011;23904;52.322;10.232;2023-04-25T01:37:37;21.48;;;5.85;;
38089;SDS011;23904;52.322;10.232;2023-04-25T01:40:07;11.35;;;5.80;;
38089;SDS011;23904;52.322;10.232;2023-04-25T01:42:36;15.25;;;6.32;;
38089;SDS011;23904;52.322;10.232;2023-04-25T01:45:04;21.33;;;7.43;;
38089;SDS011;23904;52.322;10.232;2023-04-25T01:47:30;19.05;;;5.72;;
38089;SDS011;23904;52.322;10.232;2023-04-25T01:49:56;15.70;;;6.63;;
38089;SDS011;23904;52.322;10.232;2023-04-25T01:52:21;20.58;;;6.63;;
38089;SDS011;23904;52.322;10.232;2023-04-25T01:54:47;15.82;;;6.32;;
38089;SDS011;23904;52.322;10.232;2023-04-25T01:57:14;24.73;;;6.50;;
38089;SDS011;23904;52.322;10.232;2023-04-25T01:59:39;16.02;;;6.15;;
38089;SDS011;23904;52.322;10.232;2023-04-25T02:02:06;16.48;;;6.32;;
38089;SDS011;23904;52.322;10.232;2023-04-25T02:04:32;18.95;;;6.60;;
38089;SDS011;23904;52.322;10.232;2023-04-25T02:06:58;17.25;;;6.50;;
38089;SDS011;23904;52.322;10.232;2023-04-25T02:09:23;17.95;;;7.15;;
38089;SDS011;23904;52.322;10.232;2023-04-25T02:11:49;20.00;;;7.13;;
38089;SDS011;23904;52.322;10.232;2023-04-25T02:14:15;21.02;;;7.25;;
38089;SDS011;23904;52.322;10.232;2023-04-25T02:16:41;18.38;;;6.90;;
38089;SDS011;23904;52.322;10.232;2023-04-25T02:19:08;13.10;;;6.95;;
38089;SDS011;23904;52.322;10.232;2023-04-25T02:21:35;15.63;;;6.60;;
38089;SDS011;23904;52.322;10.232;2023-04-25T02:24:01;15.38;;;6.88;;
38089;SDS011;23904;52.322;10.232;2023-04-25T02:26:27;21.45;;;7.20;;
38089;SDS011;23904;52.322;10.232;2023-04-25T02:28:52;21.48;;;8.45;;
38089;SDS011;23904;52.322;10.232;2023-04-25T02:31:18;17.00;;;8.25;;
38089;SDS011;23904;52.322;10.232;2023-04-25T02:33:44;16.15;;;8.27;;
38089;SDS011;23904;52.322;10.232;2023-04-25T02:36:10;21.80;;;7.57;;
38089;SDS011;23904;52.322;10.232;2023-04-25T02:38:35;23.73;;;8.30;;
38089;SDS011;23904;52.322;10.232;2023-04-25T02:41:01;21.42;;;8.65;;
38089;SDS011;23904;52.322;10.232;2023-04-25T02:43:26;19.70;;;9.05;;
38089;SDS011;23904;52.322;10.232;2023-04-25T02:45:52;18.75;;;8.88;;
38089;SDS011;23904;52.322;10.232;2023-04-25T02:48:17;19.17;;;8.10;;
38089;SDS011;23904;52.322;10.232;2023-04-25T02:50:43;17.30;;;7.97;;
38089;SDS011;23904;52.322;10.232;2023-04-25T02:53:08;20.88;;;9.63;;
38089;SDS011;23904;52.322;10.232;2023-04-25T02:55:34;23.05;;;8.50;;
38089;SDS011;23904;52.322;10.232;2023-04-25T02:57:59;19.17;;;8.02;;
38089;SDS011;23904;52.322;10.232;2023-04-25T03:00:25;16.77;;;8.30;;
38089;SDS011;23904;52.322;10.232;2023-04-25T03:02:51;14.65;;;7.97;;
38089;SDS011;23904;52.322;10.232;2023-04-25T03:05:16;18.40;;;8.23;;
38089;SDS011;23904;52.322;10.232;2023-04-25T03:07:42;23.92;;;7.57;;
38089;SDS011;23904;52.322;10.232;2023-04-25T03:10:09;18.33;;;7.80;;
38089;SDS011;23904;52.322;10.232;2023-04-25T03:12:36;23.55;;;9.00;;
38089;SDS011;23904;52.322;10.232;2023-04-25T03:15:02;17.50;;;7.78;;
38089;SDS011;23904;52.322;10.232;2023-04-25T03:17:28;20.00;;;8.43;;
38089;SDS011;23904;52.322;10.232;2023-04-25T03:19:54;24.20;;;7.40;;
38089;SDS011;23904;52.322;10.232;2023-04-25T03:22:21;17.33;;;7.18;;
38089;SDS011;23904;52.322;10.232;2023-04-25T03:24:49;17.05;;;6.47;;
38089;SDS011;23904;52.322;10.232;2023-04-25T03:27:15;20.77;;;6.18;;
38089;SDS011;23904;52.322;10.232;2023-04-25T03:29:42;14.70;;;5.82;;
38089;SDS011;23904;52.322;10.232;2023-04-25T03:32:08;18.30;;;5.78;;
38089;SDS011;23904;52.322;10.232;2023-04-25T03:34:33;19.63;;;5.95;;
38089;SDS011;23904;52.322;10.232;2023-04-25T03:36:59;17.17;;;6.57;;
38089;SDS011;23904;52.322;10.232;2023-04-25T03:39:25;21.15;;;6.25;;
38089;SDS011;23904;52.322;10.232;2023-04-25T03:41:51;26.27;;;6.95;;
38089;SDS011;23904;52.322;10.232;2023-04-25T03:44:17;21.15;;;5.88;;
38089;SDS011;23904;52.322;10.232;2023-04-25T03:46:43;26.33;;;5.60;;
38089;SDS011;23904;52.322;10.232;2023-04-25T03:49:08;30.60;;;6.22;;
38089;SDS011;23904;52.322;10.232;2023-04-25T03:51:34;21.02;;;5.43;;
38089;SDS011;23904;52.322;10.232;2023-04-25T03:54:00;32.42;;;7.07;;
38089;SDS011;23904;52.322;10.232;2023-04-25T03:56:25;22.75;;;5.60;;
38089;SDS011;23904;52.322;10.232;2023-04-25T03:58:53;19.55;;;5.50;;
38089;SDS011;23904;52.322;10.232;2023-04-25T04:01:18;32.63;;;6.97;;
38089;SDS011;23904;52.322;10.232;2023-04-25T04:03:44;25.48;;;6.38;;
38089;SDS011;23904;52.322;10.232;2023-04-25T04:06:10;31.40;;;6.60;;
38089;SDS011;23904;52.322;10.232;2023-04-25T04:08:36;35.92;;;6.72;;
38089;SDS011;23904;52.322;10.232;2023-04-25T04:11:01;30.40;;;7.85;;
38089;SDS011;23904;52.322;10.232;2023-04-25T04:13:27;29.80;;;6.38;;
38089;SDS011;23904;52.322;10.232;2023-04-25T04:15:55;16.50;;;5.32;;
38089;SDS011;23904;52.322;10.232;2023-04-25T04:18:24;21.23;;;6.25;;
38089;SDS011;23904;52.322;10.232;2023-04-25T04:20:49;20.10;;;5.60;;
38089;SDS011;23904;52.322;10.232;2023-04-25T04:23:15;29.73;;;5.22;;
38089;SDS011;23904;52.322;10.232;2023-04-25T04:25:41;25.08;;;5.38;;
38089;SDS011;23904;52.322;10.232;2023-04-25T04:28:06;18.88;;;5.25;;
38089;SDS011;23904;52.322;10.232;2023-04-25T04:30:32;30.25;;;6.90;;
38089;SDS011;23904;52.322;10.232;2023-04-25T04:33:01;26.33;;;5.53;;
38089;SDS011;23904;52.322;10.232;2023-04-25T04:35:27;16.42;;;5.00;;
38089;SDS011;23904;52.322;10.232;2023-04-25T04:37:53;35.00;;;6.18;;
38089;SDS011;23904;52.322;10.232;2023-04-25T04:40:19;27.85;;;6.15;;
38089;SDS011;23904;52.322;10.232;2023-04-25T04:42:45;32.28;;;6.43;;
38089;SDS011;23904;52.322;10.232;2023-04-25T04:45:11;32.92;;;7.00;;
38089;SDS011;23904;52.322;10.232;2023-04-25T04:47:38;18.80;;;5.18;;
38089;SDS011;23904;52.322;10.232;2023-04-25T04:50:05;31.88;;;6.00;;
38089;SDS011;23904;52.322;10.232;2023-04-25T04:52:34;31.50;;;7.22;;
38089;SDS011;23904;52.322;10.232;2023-04-25T04:55:01;24.42;;;5.07;;
38089;SDS011;23904;52.322;10.232;2023-04-25T04:57:28;31.10;;;5.97;;
38089;SDS011;23904;52.322;10.232;2023-04-25T04:59:54;22.17;;;5.88;;
38089;SDS011;23904;52.322;10.232;2023-04-25T05:02:20;22.17;;;5.50;;
38089;SDS011;23904;52.322;10.232;2023-04-25T05:04:45;21.80;;;5.22;;
38089;SDS011;23904;52.322;10.232;2023-04-25T05:07:12;22.75;;;5.28;;
38089;SDS011;23904;52.322;10.232;2023-04-25T05:09:38;25.80;;;5.57;;
38089;SDS011;23904;52.322;10.232;2023-04-25T05:12:04;24.95;;;5.40;;
38089;SDS011;23904;52.322;10.232;2023-04-25T05:14:30;27.38;;;7.65;;
38089;SDS011;23904;52.322;10.232;2023-04-25T05:16:55;28.48;;;5.28;;
38089;SDS011;23904;52.322;10.232;2023-04-25T05:19:21;32.38;;;5.22;;
38089;SDS011;23904;52.322;10.232;2023-04-25T05:21:47;22.10;;;4.57;;
38089;SDS011;23904;52.322;10.232;2023-04-25T05:24:12;28.27;;;5.57;;
38089;SDS011;23904;52.322;10.232;2023-04-25T05:26:38;26.10;;;5.13;;
38089;SDS011;23904;52.322;10.232;2023-04-25T05:29:03;37.30;;;6.80;;
38089;SDS011;23904;52.322;10.232;2023-04-25T05:31:30;25.92;;;4.60;;
38089;SDS011;23904;52.322;10.232;2023-04-25T05:33:56;27.38;;;4.63;;
38089;SDS011;23904;52.322;10.232;2023-04-25T05:36:22;37.60;;;9.05;;
38089;SDS011;23904;52.322;10.232;2023-04-25T05:38:48;25.27;;;5.45;;
38089;SDS011;23904;52.322;10.232;2023-04-25T05:41:13;27.73;;;5.18;;
38089;SDS011;23904;52.322;10.232;2023-04-25T05:43:39;15.88;;;4.90;;
38089;SDS011;23904;52.322;10.232;2023-04-25T05:46:10;28.60;;;5.45;;
38089;SDS011;23904;52.322;10.232;2023-04-25T05:48:36;29.80;;;4.93;;
38089;SDS011;23904;52.322;10.232;2023-04-25T05:51:02;33.83;;;5.20;;
38089;SDS011;23904;52.322;10.232;2023-04-25T05:53:28;34.33;;;5.60;;
38089;SDS011;23904;52.322;10.232;2023-04-25T05:55:54;32.00;;;6.00;;
38089;SDS011;23904;52.322;10.232;2023-04-25T05:58:19;19.60;;;4.57;;
38089;SDS011;23904;52.322;10.232;2023-04-25T06:00:45;22.70;;;4.60;;
38089;SDS011;23904;52.322;10.232;2023-04-25T06:03:11;33.03;;;6.68;;
38089;SDS011;23904;52.322;10.232;2023-04-25T06:05:39;25.02;;;4.70;;
38089;SDS011;23904;52.322;10.232;2023-04-25T06:08:09;25.23;;;4.78;;
38089;SDS011;23904;52.322;10.232;2023-04-25T06:10:35;19.85;;;4.72;;
38089;SDS011;23904;52.322;10.232;2023-04-25T06:13:01;31.20;;;5.20;;
38089;SDS011;23904;52.322;10.232;2023-04-25T06:15:27;20.65;;;4.35;;
38089;SDS011;23904;52.322;10.232;2023-04-25T06:17:53;25.40;;;5.53;;
38089;SDS011;23904;52.322;10.232;2023-04-25T06:20:19;24.45;;;4.53;;
38089;SDS011;23904;52.322;10.232;2023-04-25T06:22:48;40.20;;;5.70;;
38089;SDS011;23904;52.322;10.232;2023-04-25T06:25:15;26.63;;;4.28;;
38089;SDS011;23904;52.322;10.232;2023-04-25T06:27:41;18.30;;;4.80;;
38089;SDS011;23904;52.322;10.232;2023-04-25T06:30:06;26.30;;;4.55;;
38089;SDS011;23904;52.322;10.232;2023-04-25T06:32:33;27.50;;;5.97;;
38089;SDS011;23904;52.322;10.232;2023-04-25T06:34:59;29.20;;;4.03;;
38089;SDS011;23904;52.322;10.232;2023-04-25T06:37:26;20.90;;;4.50;;
38089;SDS011;23904;52.322;10.232;2023-04-25T06:39:52;26.38;;;5.53;;
38089;SDS011;23904;52.322;10.232;2023-04-25T06:42:17;16.30;;;3.80;;
38089;SDS011;23904;52.322;10.232;2023-04-25T06:44:43;26.88;;;3.28;;
38089;SDS011;23904;52.322;10.232;2023-04-25T06:47:08;26.02;;;4.55;;
38089;SDS011;23904;52.322;10.232;2023-04-25T06:49:34;17.13;;;3.67;;
38089;SDS011;23904;52.322;10.232;2023-04-25T06:52:00;23.27;;;4.28;;
38089;SDS011;23904;52.322;10.232;2023-04-25T06:54:25;24.65;;;4.20;;
38089;SDS011;23904;52.322;10.232;2023-04-25T06:56:53;16.10;;;3.53;;
38089;SDS011;23904;52.322;10.232;2023-04-25T06:59:19;21.80;;;4.15;;
38089;SDS011;23904;52.322;10.232;2023-04-25T07:01:44;25.17;;;4.10;;
38089;SDS011;23904;52.322;10.232;2023-04-25T07:04:10;19.88;;;3.75;;
38089;SDS011;23904;52.322;10.232;2023-04-25T07:06:36;19.92;;;3.42;;
38089;SDS011;23904;52.322;10.232;2023-04-25T07:09:07;27.20;;;3.78;;
38089;SDS011;23904;52.322;10.232;2023-04-25T07:11:36;17.08;;;3.72;;
38089;SDS011;23904;52.322;10.232;2023-04-25T07:14:02;20.15;;;2.97;;
38089;SDS011;23904;52.322;10.232;2023-04-25T07:16:27;21.23;;;5.95;;
38089;SDS011;23904;52.322;10.232;2023-04-25T07:18:53;23.75;;;3.70;;
38089;SDS011;23904;52.322;10.232;2023-04-25T07:21:19;19.38;;;3.83;;
38089;SDS011;23904;52.322;10.232;2023-04-25T07:23:44;18.73;;;3.22;;
38089;SDS011;23904;52.322;10.232;2023-04-25T07:26:10;16.45;;;3.42;;
38089;SDS011;23904;52.322;10.232;2023-04-25T07:28:36;27.33;;;4.22;;
38089;SDS011;23904;52.322;10.232;2023-04-25T07:31:01;22.45;;;3.67;;
38089;SDS011;23904;52.322;10.232;2023-04-25T07:33:27;17.70;;;3.17;;
38089;SDS011;23904;52.322;10.232;2023-04-25T07:35:53;20.45;;;3.58;;
38089;SDS011;23904;52.322;10.232;2023-04-25T07:38:20;18.02;;;2.85;;
38089;SDS011;23904;52.322;10.232;2023-04-25T07:40:47;11.80;;;2.97;;
38089;SDS011;23904;52.322;10.232;2023-04-25T07:43:13;19.55;;;4.35;;
38089;SDS011;23904;52.322;10.232;2023-04-25T07:45:41;24.00;;;4.22;;
38089;SDS011;23904;52.322;10.232;2023-04-25T07:48:08;24.35;;;4.07;;
38089;SDS011;23904;52.322;10.232;2023-04-25T07:50:33;18.02;;;3.88;;
38089;SDS011;23904;52.322;10.232;2023-04-25T07:52:59;18.88;;;4.50;;
38089;SDS011;23904;52.322;10.232;2023-04-25T07:55:25;17.02;;;3.30;;
38089;SDS011;23904;52.322;10.232;2023-04-25T07:57:50;19.13;;;3.80;;
38089;SDS011;23904;52.322;10.232;2023-04-25T08:00:16;16.23;;;3.53;;
38089;SDS011;23904;52.322;10.232;2023-04-25T08:02:42;18.02;;;3.33;;
38089;SDS011;23904;52.322;10.232;2023-04-25T08:05:07;19.85;;;4.15;;
38089;SDS011;23904;52.322;10.232;2023-04-25T08:07:36;20.85;;;4.53;;
38089;SDS011;23904;52.322;10.232;2023-04-25T08:10:04;19.35;;;3.67;;
38089;SDS011;23904;52.322;10.232;2023-04-25T08:12:31;17.25;;;3.88;;
38089;SDS011;23904;52.322;10.232;2023-04-25T08:14:56;19.98;;;4.72;;
38089;SDS011;23904;52.322;10.232;2023-04-25T08:17:22;25.80;;;4.05;;
38089;SDS011;23904;52.322;10.232;2023-04-25T08:19:48;17.08;;;3.72;;
38089;SDS011;23904;52.322;10.232;2023-04-25T08:22:14;19.35;;;3.50;;
38089;SDS011;23904;52.322;10.232;2023-04-25T08:24:40;42.53;;;5.32;;
38089;SDS011;23904;52.322;10.232;2023-04-25T08:27:06;16.33;;;3.50;;
38089;SDS011;23904;52.322;10.232;2023-04-25T08:29:32;22.10;;;3.88;;
38089;SDS011;23904;52.322;10.232;2023-04-25T08:31:59;23.05;;;3.30;;
38089;SDS011;23904;52.322;10.232;2023-04-25T08:34:24;18.95;;;3.58;;
38089;SDS011;23904;52.322;10.232;2023-04-25T08:36:50;17.75;;;4.72;;
38089;SDS011;23904;52.322;10.232;2023-04-25T08:39:16;17.33;;;3.17;;
38089;SDS011;23904;52.322;10.232;2023-04-25T08:41:42;12.70;;;2.80;;
38089;SDS011;23904;52.322;10.232;2023-04-25T08:44:09;14.82;;;2.67;;
38089;SDS011;23904;52.322;10.232;2023-04-25T08:46:37;12.45;;;2.67;;
38089;SDS011;23904;52.322;10.232;2023-04-25T08:49:07;14.38;;;2.75;;
38089;SDS011;23904;52.322;10.232;2023-04-25T08:51:39;9.75;;;2.60;;
38089;SDS011;23904;52.322;10.232;2023-04-25T08:54:16;10.45;;;3.78;;
38089;SDS011;23904;52.322;10.232;2023-04-25T08:56:45;12.43;;;2.95;;
38089;SDS011;23904;52.322;10.232;2023-04-25T08:59:13;10.25;;;1.95;;
38089;SDS011;23904;52.322;10.232;2023-04-25T09:01:38;10.35;;;2.47;;
38089;SDS011;23904;52.322;10.232;2023-04-25T09:04:04;12.43;;;2.53;;
38089;SDS011;23904;52.322;10.232;2023-04-25T09:06:30;11.65;;;2.97;;
38089;SDS011;23904;52.322;10.232;2023-04-25T09:09:06;15.45;;;3.17;;
38089;SDS011;23904;52.322;10.232;2023-04-25T09:11:34;11.00;;;2.60;;
38089;SDS011;23904;52.322;10.232;2023-04-25T09:14:14;15.65;;;3.83;;
38089;SDS011;23904;52.322;10.232;2023-04-25T09:19:28;12.98;;;3.05;;
38089;SDS011;23904;52.322;10.232;2023-04-25T09:22:00;7.82;;;2.33;;
38089;SDS011;23904;52.322;10.232;2023-04-25T09:24:39;12.98;;;2.55;;
38089;SDS011;23904;52.322;10.232;2023-04-25T09:27:08;11.43;;;2.47;;
38089;SDS011;23904;52.322;10.232;2023-04-25T09:29:39;17.48;;;2.08;;
38089;SDS011;23904;52.322;10.232;2023-04-25T09:32:10;11.48;;;2.25;;
38089;SDS011;23904;52.322;10.232;2023-04-25T09:34:43;7.47;;;1.92;;
38089;SDS011;23904;52.322;10.232;2023-04-25T09:37:16;11.15;;;2.88;;
38089;SDS011;23904;52.322;10.232;2023-04-25T09:39:50;9.25;;;3.22;;
38089;SDS011;23904;52.322;10.232;2023-04-25T09:42:21;10.18;;;2.28;;
38089;SDS011;23904;52.322;10.232;2023-04-25T09:44:49;15.57;;;2.65;;
38089;SDS011;23904;52.322;10.232;2023-04-25T09:47:18;16.67;;;3.50;;
38089;SDS011;23904;52.322;10.232;2023-04-25T09:49:46;12.80;;;2.63;;
38089;SDS011;23904;52.322;10.232;2023-04-25T09:52:19;11.27;;;2.47;;
38089;SDS011;23904;52.322;10.232;2023-04-25T09:54:47;11.80;;;2.25;;
38089;SDS011;23904;52.322;10.232;2023-04-25T09:57:15;10.02;;;2.30;;
38089;SDS011;23904;52.322;10.232;2023-04-25T09:59:46;6.15;;;2.35;;
38089;SDS011;23904;52.322;10.232;2023-04-25T10:02:14;6.55;;;1.90;;
38089;SDS011;23904;52.322;10.232;2023-04-25T10:04:44;10.30;;;2.30;;
38089;SDS011;23904;52.322;10.232;2023-04-25T10:07:13;10.20;;;2.15;;
38089;SDS011;23904;52.322;10.232;2023-04-25T10:09:40;9.45;;;2.75;;
38089;SDS011;23904;52.322;10.232;2023-04-25T10:12:07;6.35;;;1.85;;
38089;SDS011;23904;52.322;10.232;2023-04-25T10:14:33;8.48;;;1.58;;
38089;SDS011;23904;52.322;10.232;2023-04-25T10:16:59;9.13;;;1.90;;
38089;SDS011;23904;52.322;10.232;2023-04-25T10:19:26;8.43;;;2.00;;
38089;SDS011;23904;52.322;10.232;2023-04-25T10:21:58;8.45;;;2.60;;
38089;SDS011;23904;52.322;10.232;2023-04-25T10:24:37;10.55;;;2.05;;
38089;SDS011;23904;52.322;10.232;2023-04-25T10:27:04;9.02;;;2.25;;
38089;SDS011;23904;52.322;10.232;2023-04-25T10:29:31;5.78;;;1.85;;
38089;SDS011;23904;52.322;10.232;2023-04-25T10:31:56;9.05;;;1.92;;
38089;SDS011;23904;52.322;10.232;2023-04-25T10:34:41;6.80;;;2.00;;
38089;SDS011;23904;52.322;10.232;2023-04-25T10:37:12;8.07;;;1.98;;
38089;SDS011;23904;52.322;10.232;2023-04-25T10:39:41;5.47;;;1.50;;
38089;SDS011;23904;52.322;10.232;2023-04-25T10:42:07;8.65;;;2.33;;
38089;SDS011;23904;52.322;10.232;2023-04-25T10:44:33;9.10;;;2.30;;
38089;SDS011;23904;52.322;10.232;2023-04-25T10:47:02;10.20;;;2.45;;
38089;SDS011;23904;52.322;10.232;2023-04-25T10:49:35;7.90;;;1.65;;
38089;SDS011;23904;52.322;10.232;2023-04-25T10:52:10;9.13;;;2.03;;
38089;SDS011;23904;52.322;10.232;2023-04-25T11:00:12;4.85;;;1.73;;
38089;SDS011;23904;52.322;10.232;2023-04-25T11:02:46;10.30;;;1.70;;
38089;SDS011;23904;52.322;10.232;2023-04-25T11:05:38;7.35;;;2.05;;
38089;SDS011;23904;52.322;10.232;2023-04-25T11:08:07;12.02;;;1.98;;
38089;SDS011;23904;52.322;10.232;2023-04-25T11:10:36;10.23;;;3.10;;
38089;SDS011;23904;52.322;10.232;2023-04-25T11:13:02;15.75;;;2.38;;
38089;SDS011;23904;52.322;10.232;2023-04-25T11:15:28;10.00;;;2.10;;
38089;SDS011;23904;52.322;10.232;2023-04-25T11:17:54;13.32;;;2.47;;
38089;SDS011;23904;52.322;10.232;2023-04-25T11:20:20;11.45;;;1.92;;
38089;SDS011;23904;52.322;10.232;2023-04-25T11:22:47;10.07;;;2.60;;
38089;SDS011;23904;52.322;10.232;2023-04-25T11:25:14;13.23;;;2.22;;
38089;SDS011;23904;52.322;10.232;2023-04-25T11:27:54;8.30;;;1.95;;
38089;SDS011;23904;52.322;10.232;2023-04-25T11:30:25;6.05;;;1.17;;
38089;SDS011;23904;52.322;10.232;2023-04-25T11:32:51;35.72;;;4.55;;
38089;SDS011;23904;52.322;10.232;2023-04-25T11:35:18;21.77;;;2.40;;
38089;SDS011;23904;52.322;10.232;2023-04-25T11:37:45;15.88;;;3.53;;
38089;SDS011;23904;52.322;10.232;2023-04-25T11:40:11;11.10;;;3.00;;
38089;SDS011;23904;52.322;10.232;2023-04-25T11:42:43;12.18;;;2.45;;
38089;SDS011;23904;52.322;10.232;2023-04-25T11:45:11;6.35;;;1.50;;
38089;SDS011;23904;52.322;10.232;2023-04-25T11:47:37;10.32;;;2.05;;
38089;SDS011;23904;52.322;10.232;2023-04-25T11:50:03;17.33;;;3.53;;
38089;SDS011;23904;52.322;10.232;2023-04-25T11:52:36;15.75;;;2.45;;
38089;SDS011;23904;52.322;10.232;2023-04-25T11:55:07;9.70;;;2.20;;
38089;SDS011;23904;52.322;10.232;2023-04-25T11:57:41;17.00;;;2.55;;
38089;SDS011;23904;52.322;10.232;2023-04-25T12:00:12;8.07;;;1.80;;
38089;SDS011;23904;52.322;10.232;2023-04-25T12:05:09;7.80;;;2.10;;
38089;SDS011;23904;52.322;10.232;2023-04-25T12:07:36;7.22;;;1.30;;
38089;SDS011;23904;52.322;10.232;2023-04-25T12:10:05;7.68;;;1.88;;
38089;SDS011;23904;52.322;10.232;2023-04-25T12:12:36;13.07;;;1.48;;
38089;SDS011;23904;52.322;10.232;2023-04-25T12:15:12;16.45;;;2.70;;
38089;SDS011;23904;52.322;10.232;2023-04-25T12:17:47;9.90;;;1.85;;
38089;SDS011;23904;52.322;10.232;2023-04-25T12:20:17;11.38;;;2.28;;
38089;SDS011;23904;52.322;10.232;2023-04-25T12:22:49;7.60;;;1.50;;
38089;SDS011;23904;52.322;10.232;2023-04-25T12:25:35;18.48;;;3.45;;
38089;SDS011;23904;52.322;10.232;2023-04-25T12:28:24;10.35;;;1.45;;
38089;SDS011;23904;52.322;10.232;2023-04-25T12:30:55;10.82;;;1.92;;
38089;SDS011;23904;52.322;10.232;2023-04-25T12:33:35;10.45;;;1.15;;
38089;SDS011;23904;52.322;10.232;2023-04-25T12:36:02;9.55;;;2.33;;
38089;SDS011;23904;52.322;10.232;2023-04-25T12:38:37;10.63;;;1.80;;
38089;SDS011;23904;52.322;10.232;2023-04-25T12:41:05;7.15;;;1.60;;
38089;SDS011;23904;52.322;10.232;2023-04-25T12:43:31;8.52;;;2.08;;
38089;SDS011;23904;52.322;10.232;2023-04-25T12:45:56;3.33;;;1.33;;
38089;SDS011;23904;52.322;10.232;2023-04-25T12:48:22;10.38;;;2.33;;
38089;SDS011;23904;52.322;10.232;2023-04-25T12:50:48;9.43;;;1.75;;
38089;SDS011;23904;52.322;10.232;2023-04-25T12:53:15;7.80;;;1.83;;
38089;SDS011;23904;52.322;10.232;2023-04-25T12:55:42;17.98;;;1.83;;
38089;SDS011;23904;52.322;10.232;2023-04-25T12:58:07;8.32;;;1.90;;
38089;SDS011;23904;52.322;10.232;2023-04-25T13:00:33;7.78;;;1.70;;
38089;SDS011;23904;52.322;10.232;2023-04-25T13:02:59;11.55;;;2.78;;
38089;SDS011;23904;52.322;10.232;2023-04-25T13:05:24;10.60;;;2.33;;
38089;SDS011;23904;52.322;10.232;2023-04-25T13:07:50;5.25;;;1.58;;
38089;SDS011;23904;52.322;10.232;2023-04-25T13:10:16;6.07;;;1.70;;
38089;SDS011;23904;52.322;10.232;2023-04-25T13:12:42;6.25;;;1.60;;
38089;SDS011;23904;52.322;10.232;2023-04-25T13:15:08;9.93;;;2.35;;
38089;SDS011;23904;52.322;10.232;2023-04-25T13:17:36;13.10;;;2.00;;
38089;SDS011;23904;52.322;10.232;2023-04-25T13:20:03;8.85;;;1.40;;
38089;SDS011;23904;52.322;10.232;2023-04-25T13:22:37;8.10;;;1.48;;
38089;SDS011;23904;52.322;10.232;2023-04-25T13:25:04;10.85;;;1.85;;
38089;SDS011;23904;52.322;10.232;2023-04-25T13:27:31;9.15;;;1.40;;
38089;SDS011;23904;52.322;10.232;2023-04-25T13:30:02;6.13;;;1.52;;
38089;SDS011;23904;52.322;10.232;2023-04-25T13:32:35;8.40;;;1.40;;
38089;SDS011;23904;52.322;10.232;2023-04-25T13:35:06;8.27;;;1.48;;
38089;SDS011;23904;52.322;10.232;2023-04-25T13:37:34;2.50;;;1.13;;
38089;SDS011;23904;52.322;10.232;2023-04-25T13:40:00;6.95;;;1.20;;
38089;SDS011;23904;52.322;10.232;2023-04-25T13:42:29;3.88;;;1.40;;
38089;SDS011;23904;52.322;10.232;2023-04-25T13:44:56;5.80;;;0.90;;
38089;SDS011;23904;52.322;10.232;2023-04-25T13:47:22;2.28;;;0.85;;
38089;SDS011;23904;52.322;10.232;2023-04-25T13:49:48;1.90;;;0.63;;
38089;SDS011;23904;52.322;10.232;2023-04-25T13:52:14;5.85;;;0.88;;
38089;SDS011;23904;52.322;10.232;2023-04-25T13:54:40;7.82;;;1.02;;
38089;SDS011;23904;52.322;10.232;2023-04-25T13:57:05;5.22;;;0.98;;
38089;SDS011;23904;52.322;10.232;2023-04-25T13:59:31;4.38;;;1.15;;
38089;SDS011;23904;52.322;10.232;2023-04-25T14:01:57;7.97;;;2.10;;
38089;SDS011;23904;52.322;10.232;2023-04-25T14:04:23;5.13;;;1.02;;
38089;SDS011;23904;52.322;10.232;2023-04-25T14:06:48;9.88;;;1.33;;
38089;SDS011;23904;52.322;10.232;2023-04-25T14:09:15;4.72;;;1.27;;
38089;SDS011;23904;52.322;10.232;2023-04-25T14:11:40;4.72;;;1.30;;
38089;SDS011;23904;52.322;10.232;2023-04-25T14:14:06;5.97;;;1.10;;
38089;SDS011;23904;52.322;10.232;2023-04-25T14:16:31;6.18;;;1.30;;
38089;SDS011;23904;52.322;10.232;2023-04-25T14:18:57;13.30;;;1.63;;
38089;SDS011;23904;52.322;10.232;2023-04-25T14:21:23;9.07;;;1.50;;
38089;SDS011;23904;52.322;10.232;2023-04-25T14:23:50;10.30;;;1.58;;
38089;SDS011;23904;52.322;10.232;2023-04-25T14:26:15;8.57;;;1.70;;
38089;SDS011;23904;52.322;10.232;2023-04-25T14:28:41;5.55;;;1.52;;
38089;SDS011;23904;52.322;10.232;2023-04-25T14:31:07;11.60;;;1.75;;
38089;SDS011;23904;52.322;10.232;2023-04-25T14:33:32;8.68;;;1.77;;
38089;SDS011;23904;52.322;10.232;2023-04-25T14:35:58;7.43;;;1.58;;